sensor_id;sensor_type;location;lat;lon;timestamp;P1;durP1;ratioP1;P2;durP2;ratioP2
13943;SDS011;7044;53.286;8.534;2023-07-29T00:02:32;5.85;;;5.18;;
13943;SDS011;7044;53.286;8.534;2023-07-29T00:04:58;6.55;;;5.32;;
13943;SDS011;7044;53.286;8.534;2023-07-29T00:07:25;8.40;;;5.03;;
13943;SDS011;7044;53.286;8.534;2023-07-29T00:09:52;5.80;;;5.20;;
13943;SDS011;7044;53.286;8.534;2023-07-29T00:12:19;6.18;;;5.30;;
13943;SDS011;7044;53.286;8.534;2023-07-29T00:14:47;6.43;;;5.03;;
13943;SDS011;7044;53.286;8.534;2023-07-29T00:17:14;7.50;;;5.82;;
13943;SDS011;7044;53.286;8.534;2023-07-29T00:19:41;5.95;;;5.35;;
13943;SDS011;7044;53.286;8.534;2023-07-29T00:22:07;7.97;;;5.00;;
13943;SDS011;7044;53.286;8.534;2023-07-29T00:24:34;5.60;;;4.47;;
13943;SDS011;7044;53.286;8.534;2023-07-29T00:27:01;6.00;;;5.15;;
13943;SDS011;7044;53.286;8.534;2023-07-29T00:29:28;12.68;;;5.28;;
13943;SDS011;7044;53.286;8.534;2023-07-29T00:31:56;9.25;;;5.30;;
13943;SDS011;7044;53.286;8.534;2023-07-29T00:34:23;7.68;;;5.45;;
13943;SDS011;7044;53.286;8.534;2023-07-29T00:36:50;5.90;;;4.78;;
13943;SDS011;7044;53.286;8.534;2023-07-29T00:39:17;6.80;;;5.13;;
13943;SDS011;7044;53.286;8.534;2023-07-29T00:41:44;8.73;;;5.13;;
13943;SDS011;7044;53.286;8.534;2023-07-29T00:44:11;9.80;;;5.20;;
13943;SDS011;7044;53.286;8.534;2023-07-29T00:46:38;6.18;;;5.22;;
13943;SDS011;7044;53.286;8.534;2023-07-29T00:49:07;6.78;;;5.75;;
13943;SDS011;7044;53.286;8.534;2023-07-29T00:51:34;8.80;;;5.70;;
13943;SDS011;7044;53.286;8.534;2023-07-29T00:54:01;9.13;;;5.63;;
13943;SDS011;7044;53.286;8.534;2023-07-29T00:56:28;8.20;;;5.75;;
13943;SDS011;7044;53.286;8.534;2023-07-29T00:58:55;9.52;;;5.43;;
13943;SDS011;7044;53.286;8.534;2023-07-29T01:01:26;16.02;;;5.78;;
13943;SDS011;7044;53.286;8.534;2023-07-29T01:03:53;5.55;;;4.90;;
13943;SDS011;7044;53.286;8.534;2023-07-29T01:06:24;7.78;;;5.45;;
13943;SDS011;7044;53.286;8.534;2023-07-29T01:08:58;8.15;;;5.90;;
13943;SDS011;7044;53.286;8.534;2023-07-29T01:11:31;6.90;;;5.55;;
13943;SDS011;7044;53.286;8.534;2023-07-29T01:14:05;8.20;;;5.13;;
13943;SDS011;7044;53.286;8.534;2023-07-29T01:16:39;8.23;;;5.90;;
13943;SDS011;7044;53.286;8.534;2023-07-29T01:19:07;7.65;;;4.60;;
13943;SDS011;7044;53.286;8.534;2023-07-29T01:21:47;8.65;;;5.82;;
13943;SDS011;7044;53.286;8.534;2023-07-29T01:24:15;10.07;;;5.47;;
13943;SDS011;7044;53.286;8.534;2023-07-29T01:26:42;8.45;;;6.47;;
13943;SDS011;7044;53.286;8.534;2023-07-29T01:29:09;7.68;;;6.68;;
13943;SDS011;7044;53.286;8.534;2023-07-29T01:31:37;9.35;;;6.82;;
13943;SDS011;7044;53.286;8.534;2023-07-29T01:34:10;11.98;;;6.90;;
13943;SDS011;7044;53.286;8.534;2023-07-29T01:36:41;8.75;;;6.85;;
13943;SDS011;7044;53.286;8.534;2023-07-29T01:39:10;11.77;;;7.35;;
13943;SDS011;7044;53.286;8.534;2023-07-29T01:41:39;13.50;;;6.82;;
13943;SDS011;7044;53.286;8.534;2023-07-29T01:44:07;9.00;;;6.90;;
13943;SDS011;7044;53.286;8.534;2023-07-29T01:46:34;15.75;;;7.55;;
13943;SDS011;7044;53.286;8.534;2023-07-29T01:49:02;11.50;;;7.32;;
13943;SDS011;7044;53.286;8.534;2023-07-29T01:51:29;28.45;;;8.50;;
13943;SDS011;7044;53.286;8.534;2023-07-29T01:53:56;20.67;;;8.43;;
13943;SDS011;7044;53.286;8.534;2023-07-29T01:56:24;11.45;;;7.50;;
13943;SDS011;7044;53.286;8.534;2023-07-29T01:58:52;10.25;;;8.30;;
13943;SDS011;7044;53.286;8.534;2023-07-29T02:01:19;14.20;;;8.57;;
13943;SDS011;7044;53.286;8.534;2023-07-29T02:03:46;15.95;;;9.45;;
13943;SDS011;7044;53.286;8.534;2023-07-29T02:06:18;17.40;;;9.25;;
13943;SDS011;7044;53.286;8.534;2023-07-29T02:08:45;12.88;;;8.30;;
13943;SDS011;7044;53.286;8.534;2023-07-29T02:11:12;12.95;;;8.80;;
13943;SDS011;7044;53.286;8.534;2023-07-29T02:13:38;10.38;;;8.02;;
13943;SDS011;7044;53.286;8.534;2023-07-29T02:16:07;12.00;;;9.30;;
13943;SDS011;7044;53.286;8.534;2023-07-29T02:18:33;12.38;;;8.60;;
13943;SDS011;7044;53.286;8.534;2023-07-29T02:21:00;13.27;;;8.98;;
13943;SDS011;7044;53.286;8.534;2023-07-29T02:23:28;11.82;;;8.52;;
13943;SDS011;7044;53.286;8.534;2023-07-29T02:25:54;17.38;;;9.40;;
13943;SDS011;7044;53.286;8.534;2023-07-29T02:28:21;14.05;;;8.05;;
13943;SDS011;7044;53.286;8.534;2023-07-29T02:30:48;11.48;;;8.52;;
13943;SDS011;7044;53.286;8.534;2023-07-29T02:33:38;14.95;;;9.05;;
13943;SDS011;7044;53.286;8.534;2023-07-29T02:36:05;15.90;;;7.97;;
13943;SDS011;7044;53.286;8.534;2023-07-29T02:38:32;12.15;;;7.85;;
13943;SDS011;7044;53.286;8.534;2023-07-29T02:40:58;11.70;;;8.00;;
13943;SDS011;7044;53.286;8.534;2023-07-29T02:43:25;10.90;;;7.53;;
13943;SDS011;7044;53.286;8.534;2023-07-29T02:45:52;11.43;;;7.55;;
13943;SDS011;7044;53.286;8.534;2023-07-29T02:48:20;8.90;;;7.00;;
13943;SDS011;7044;53.286;8.534;2023-07-29T02:50:47;16.83;;;7.47;;
13943;SDS011;7044;53.286;8.534;2023-07-29T02:53:14;12.27;;;7.13;;
13943;SDS011;7044;53.286;8.534;2023-07-29T02:55:41;10.13;;;7.03;;
13943;SDS011;7044;53.286;8.534;2023-07-29T02:58:07;9.02;;;7.30;;
13943;SDS011;7044;53.286;8.534;2023-07-29T03:00:34;10.25;;;7.10;;
13943;SDS011;7044;53.286;8.534;2023-07-29T03:03:01;7.82;;;6.85;;
13943;SDS011;7044;53.286;8.534;2023-07-29T03:05:29;9.60;;;7.57;;
13943;SDS011;7044;53.286;8.534;2023-07-29T03:07:57;13.98;;;7.00;;
13943;SDS011;7044;53.286;8.534;2023-07-29T03:10:24;15.75;;;7.20;;
13943;SDS011;7044;53.286;8.534;2023-07-29T03:12:52;15.85;;;7.10;;
13943;SDS011;7044;53.286;8.534;2023-07-29T03:15:22;7.95;;;6.57;;
13943;SDS011;7044;53.286;8.534;2023-07-29T03:17:49;8.32;;;7.38;;
13943;SDS011;7044;53.286;8.534;2023-07-29T03:20:16;8.70;;;6.75;;
13943;SDS011;7044;53.286;8.534;2023-07-29T03:22:45;7.35;;;6.50;;
13943;SDS011;7044;53.286;8.534;2023-07-29T03:25:12;7.60;;;6.75;;
13943;SDS011;7044;53.286;8.534;2023-07-29T03:27:39;7.78;;;6.63;;
13943;SDS011;7044;53.286;8.534;2023-07-29T03:30:06;11.05;;;6.68;;
13943;SDS011;7044;53.286;8.534;2023-07-29T03:32:33;8.95;;;6.93;;
13943;SDS011;7044;53.286;8.534;2023-07-29T03:35:00;7.38;;;6.50;;
13943;SDS011;7044;53.286;8.534;2023-07-29T03:37:27;8.60;;;7.57;;
13943;SDS011;7044;53.286;8.534;2023-07-29T03:39:55;8.48;;;6.82;;
13943;SDS011;7044;53.286;8.534;2023-07-29T03:42:22;10.88;;;7.15;;
13943;SDS011;7044;53.286;8.534;2023-07-29T03:44:48;10.02;;;7.65;;
13943;SDS011;7044;53.286;8.534;2023-07-29T03:47:15;9.88;;;7.50;;
13943;SDS011;7044;53.286;8.534;2023-07-29T03:49:42;8.98;;;6.85;;
13943;SDS011;7044;53.286;8.534;2023-07-29T03:52:09;8.40;;;6.97;;
13943;SDS011;7044;53.286;8.534;2023-07-29T03:54:36;14.80;;;7.10;;
13943;SDS011;7044;53.286;8.534;2023-07-29T03:57:04;11.23;;;7.03;;
13943;SDS011;7044;53.286;8.534;2023-07-29T03:59:32;16.48;;;7.13;;
13943;SDS011;7044;53.286;8.534;2023-07-29T04:01:58;10.38;;;7.95;;
13943;SDS011;7044;53.286;8.534;2023-07-29T04:04:25;10.00;;;7.95;;
13943;SDS011;7044;53.286;8.534;2023-07-29T04:06:52;15.35;;;8.25;;
13943;SDS011;7044;53.286;8.534;2023-07-29T04:09:19;10.30;;;8.32;;
13943;SDS011;7044;53.286;8.534;2023-07-29T04:11:46;15.43;;;8.90;;
13943;SDS011;7044;53.286;8.534;2023-07-29T04:14:14;11.73;;;8.85;;
13943;SDS011;7044;53.286;8.534;2023-07-29T04:16:41;11.82;;;8.98;;
13943;SDS011;7044;53.286;8.534;2023-07-29T04:19:08;15.23;;;8.85;;
13943;SDS011;7044;53.286;8.534;2023-07-29T04:21:35;8.80;;;7.72;;
13943;SDS011;7044;53.286;8.534;2023-07-29T04:24:02;13.10;;;8.73;;
13943;SDS011;7044;53.286;8.534;2023-07-29T04:26:29;11.80;;;8.63;;
13943;SDS011;7044;53.286;8.534;2023-07-29T04:28:56;12.63;;;8.07;;
13943;SDS011;7044;53.286;8.534;2023-07-29T04:31:24;14.30;;;9.15;;
13943;SDS011;7044;53.286;8.534;2023-07-29T04:33:51;10.27;;;8.65;;
13943;SDS011;7044;53.286;8.534;2023-07-29T04:36:18;10.35;;;8.20;;
13943;SDS011;7044;53.286;8.534;2023-07-29T04:38:45;12.25;;;9.32;;
13943;SDS011;7044;53.286;8.534;2023-07-29T04:41:12;11.50;;;9.05;;
13943;SDS011;7044;53.286;8.534;2023-07-29T04:43:38;10.85;;;8.75;;
13943;SDS011;7044;53.286;8.534;2023-07-29T04:46:06;12.95;;;9.10;;
13943;SDS011;7044;53.286;8.534;2023-07-29T04:48:35;11.98;;;9.55;;
13943;SDS011;7044;53.286;8.534;2023-07-29T04:51:02;13.73;;;8.70;;
13943;SDS011;7044;53.286;8.534;2023-07-29T04:53:29;16.55;;;8.93;;
13943;SDS011;7044;53.286;8.534;2023-07-29T04:55:56;15.32;;;9.57;;
13943;SDS011;7044;53.286;8.534;2023-07-29T04:58:22;14.35;;;9.63;;
13943;SDS011;7044;53.286;8.534;2023-07-29T05:00:49;12.73;;;9.05;;
13943;SDS011;7044;53.286;8.534;2023-07-29T05:03:16;16.75;;;10.63;;
13943;SDS011;7044;53.286;8.534;2023-07-29T05:05:44;12.98;;;9.88;;
13943;SDS011;7044;53.286;8.534;2023-07-29T05:08:11;11.95;;;10.43;;
13943;SDS011;7044;53.286;8.534;2023-07-29T05:10:38;13.52;;;9.52;;
13943;SDS011;7044;53.286;8.534;2023-07-29T05:13:04;16.15;;;10.18;;
13943;SDS011;7044;53.286;8.534;2023-07-29T05:15:31;15.50;;;9.77;;
13943;SDS011;7044;53.286;8.534;2023-07-29T05:17:58;14.95;;;9.73;;
13943;SDS011;7044;53.286;8.534;2023-07-29T05:20:25;11.75;;;9.63;;
13943;SDS011;7044;53.286;8.534;2023-07-29T05:22:53;10.90;;;9.77;;
13943;SDS011;7044;53.286;8.534;2023-07-29T05:25:20;12.55;;;9.40;;
13943;SDS011;7044;53.286;8.534;2023-07-29T05:27:46;12.32;;;9.65;;
13943;SDS011;7044;53.286;8.534;2023-07-29T05:30:13;12.85;;;9.40;;
13943;SDS011;7044;53.286;8.534;2023-07-29T05:32:40;13.02;;;10.35;;
13943;SDS011;7044;53.286;8.534;2023-07-29T05:35:06;13.32;;;9.48;;
13943;SDS011;7044;53.286;8.534;2023-07-29T05:37:33;14.50;;;9.82;;
13943;SDS011;7044;53.286;8.534;2023-07-29T05:40:02;14.90;;;10.18;;
13943;SDS011;7044;53.286;8.534;2023-07-29T05:42:29;12.73;;;10.15;;
13943;SDS011;7044;53.286;8.534;2023-07-29T05:44:56;17.15;;;9.52;;
13943;SDS011;7044;53.286;8.534;2023-07-29T05:47:23;17.00;;;10.38;;
13943;SDS011;7044;53.286;8.534;2023-07-29T05:49:50;11.18;;;9.73;;
13943;SDS011;7044;53.286;8.534;2023-07-29T05:52:16;18.33;;;10.02;;
13943;SDS011;7044;53.286;8.534;2023-07-29T05:54:43;16.08;;;10.63;;
13943;SDS011;7044;53.286;8.534;2023-07-29T05:57:12;16.65;;;10.45;;
13943;SDS011;7044;53.286;8.534;2023-07-29T05:59:39;14.95;;;11.05;;
13943;SDS011;7044;53.286;8.534;2023-07-29T06:02:06;12.25;;;9.63;;
13943;SDS011;7044;53.286;8.534;2023-07-29T06:04:32;18.52;;;10.35;;
13943;SDS011;7044;53.286;8.534;2023-07-29T06:06:59;14.15;;;11.07;;
13943;SDS011;7044;53.286;8.534;2023-07-29T06:09:26;13.30;;;10.15;;
13943;SDS011;7044;53.286;8.534;2023-07-29T06:11:53;14.27;;;10.32;;
13943;SDS011;7044;53.286;8.534;2023-07-29T06:14:21;14.75;;;10.13;;
13943;SDS011;7044;53.286;8.534;2023-07-29T06:16:48;15.52;;;10.23;;
13943;SDS011;7044;53.286;8.534;2023-07-29T06:19:14;14.88;;;10.35;;
13943;SDS011;7044;53.286;8.534;2023-07-29T06:21:41;16.88;;;10.48;;
13943;SDS011;7044;53.286;8.534;2023-07-29T06:24:08;12.20;;;9.10;;
13943;SDS011;7044;53.286;8.534;2023-07-29T06:26:35;13.10;;;10.32;;
13943;SDS011;7044;53.286;8.534;2023-07-29T06:29:02;13.93;;;10.10;;
13943;SDS011;7044;53.286;8.534;2023-07-29T06:31:30;11.98;;;9.70;;
13943;SDS011;7044;53.286;8.534;2023-07-29T06:33:57;15.27;;;10.15;;
13943;SDS011;7044;53.286;8.534;2023-07-29T06:36:24;14.50;;;10.07;;
13943;SDS011;7044;53.286;8.534;2023-07-29T06:38:51;16.70;;;9.60;;
13943;SDS011;7044;53.286;8.534;2023-07-29T06:41:18;11.55;;;9.43;;
13943;SDS011;7044;53.286;8.534;2023-07-29T06:43:44;12.05;;;8.98;;
13943;SDS011;7044;53.286;8.534;2023-07-29T06:46:11;14.57;;;9.65;;
13943;SDS011;7044;53.286;8.534;2023-07-29T06:48:40;12.07;;;9.20;;
13943;SDS011;7044;53.286;8.534;2023-07-29T06:51:07;14.63;;;8.60;;
13943;SDS011;7044;53.286;8.534;2023-07-29T06:53:33;12.57;;;8.60;;
13943;SDS011;7044;53.286;8.534;2023-07-29T06:56:00;15.38;;;9.45;;
13943;SDS011;7044;53.286;8.534;2023-07-29T06:58:27;12.32;;;8.82;;
13943;SDS011;7044;53.286;8.534;2023-07-29T07:00:54;11.65;;;8.88;;
13943;SDS011;7044;53.286;8.534;2023-07-29T07:03:21;9.50;;;8.18;;
13943;SDS011;7044;53.286;8.534;2023-07-29T07:05:52;11.35;;;8.27;;
13943;SDS011;7044;53.286;8.534;2023-07-29T07:08:19;10.57;;;7.25;;
13943;SDS011;7044;53.286;8.534;2023-07-29T07:10:46;10.95;;;7.47;;
13943;SDS011;7044;53.286;8.534;2023-07-29T07:13:13;10.88;;;8.43;;
13943;SDS011;7044;53.286;8.534;2023-07-29T07:15:40;9.73;;;7.75;;
13943;SDS011;7044;53.286;8.534;2023-07-29T07:18:06;9.48;;;6.90;;
13943;SDS011;7044;53.286;8.534;2023-07-29T07:20:34;10.00;;;6.80;;
13943;SDS011;7044;53.286;8.534;2023-07-29T07:23:03;10.00;;;6.80;;
13943;SDS011;7044;53.286;8.534;2023-07-29T07:25:33;8.95;;;6.50;;
13943;SDS011;7044;53.286;8.534;2023-07-29T07:28:00;7.65;;;6.05;;
13943;SDS011;7044;53.286;8.534;2023-07-29T07:30:27;7.93;;;6.15;;
13943;SDS011;7044;53.286;8.534;2023-07-29T07:32:54;12.85;;;6.85;;
13943;SDS011;7044;53.286;8.534;2023-07-29T07:35:21;9.23;;;6.60;;
13943;SDS011;7044;53.286;8.534;2023-07-29T07:37:47;11.00;;;6.10;;
13943;SDS011;7044;53.286;8.534;2023-07-29T07:40:16;7.43;;;5.90;;
13943;SDS011;7044;53.286;8.534;2023-07-29T07:42:42;7.68;;;5.43;;
13943;SDS011;7044;53.286;8.534;2023-07-29T07:45:09;7.50;;;5.57;;
13943;SDS011;7044;53.286;8.534;2023-07-29T07:47:36;7.68;;;5.55;;
13943;SDS011;7044;53.286;8.534;2023-07-29T07:50:03;7.22;;;5.30;;
13943;SDS011;7044;53.286;8.534;2023-07-29T07:52:31;11.35;;;5.60;;
13943;SDS011;7044;53.286;8.534;2023-07-29T07:54:57;9.27;;;6.07;;
13943;SDS011;7044;53.286;8.534;2023-07-29T07:57:25;7.93;;;5.72;;
13943;SDS011;7044;53.286;8.534;2023-07-29T07:59:52;5.68;;;5.07;;
13943;SDS011;7044;53.286;8.534;2023-07-29T08:02:19;6.43;;;5.60;;
13943;SDS011;7044;53.286;8.534;2023-07-29T08:04:46;7.00;;;4.97;;
13943;SDS011;7044;53.286;8.534;2023-07-29T08:07:13;6.55;;;4.78;;
13943;SDS011;7044;53.286;8.534;2023-07-29T08:09:40;9.48;;;5.38;;
13943;SDS011;7044;53.286;8.534;2023-07-29T08:12:07;6.97;;;4.85;;
13943;SDS011;7044;53.286;8.534;2023-07-29T08:14:35;8.70;;;5.32;;
13943;SDS011;7044;53.286;8.534;2023-07-29T08:17:02;5.03;;;4.50;;
13943;SDS011;7044;53.286;8.534;2023-07-29T08:19:29;7.80;;;5.13;;
13943;SDS011;7044;53.286;8.534;2023-07-29T08:21:55;7.32;;;4.32;;
13943;SDS011;7044;53.286;8.534;2023-07-29T08:24:23;7.40;;;4.80;;
13943;SDS011;7044;53.286;8.534;2023-07-29T08:26:50;6.63;;;4.10;;
13943;SDS011;7044;53.286;8.534;2023-07-29T08:29:17;6.05;;;4.25;;
13943;SDS011;7044;53.286;8.534;2023-07-29T08:31:45;4.88;;;4.15;;
13943;SDS011;7044;53.286;8.534;2023-07-29T08:34:12;4.60;;;3.80;;
13943;SDS011;7044;53.286;8.534;2023-07-29T08:36:38;10.95;;;4.03;;
13943;SDS011;7044;53.286;8.534;2023-07-29T08:39:05;11.75;;;4.63;;
13943;SDS011;7044;53.286;8.534;2023-07-29T08:41:32;9.52;;;4.10;;
13943;SDS011;7044;53.286;8.534;2023-07-29T08:44:06;8.00;;;4.18;;
13943;SDS011;7044;53.286;8.534;2023-07-29T08:46:35;6.85;;;4.18;;
13943;SDS011;7044;53.286;8.534;2023-07-29T08:49:04;4.45;;;3.70;;
13943;SDS011;7044;53.286;8.534;2023-07-29T08:51:31;6.30;;;3.38;;
13943;SDS011;7044;53.286;8.534;2023-07-29T08:53:59;3.55;;;3.25;;
13943;SDS011;7044;53.286;8.534;2023-07-29T08:56:27;4.88;;;3.65;;
13943;SDS011;7044;53.286;8.534;2023-07-29T08:58:55;5.20;;;3.13;;
13943;SDS011;7044;53.286;8.534;2023-07-29T09:01:22;6.15;;;3.17;;
13943;SDS011;7044;53.286;8.534;2023-07-29T09:03:49;4.75;;;3.13;;
13943;SDS011;7044;53.286;8.534;2023-07-29T09:06:18;5.15;;;3.30;;
13943;SDS011;7044;53.286;8.534;2023-07-29T09:08:45;3.33;;;3.00;;
13943;SDS011;7044;53.286;8.534;2023-07-29T09:11:14;4.93;;;2.65;;
13943;SDS011;7044;53.286;8.534;2023-07-29T09:13:42;4.22;;;3.10;;
13943;SDS011;7044;53.286;8.534;2023-07-29T09:16:09;3.22;;;2.80;;
13943;SDS011;7044;53.286;8.534;2023-07-29T09:18:36;3.67;;;3.00;;
13943;SDS011;7044;53.286;8.534;2023-07-29T09:21:03;4.68;;;3.20;;
13943;SDS011;7044;53.286;8.534;2023-07-29T09:23:39;7.97;;;3.58;;
13943;SDS011;7044;53.286;8.534;2023-07-29T09:26:06;4.63;;;3.78;;
13943;SDS011;7044;53.286;8.534;2023-07-29T09:28:34;4.32;;;3.30;;
13943;SDS011;7044;53.286;8.534;2023-07-29T09:31:02;5.80;;;3.75;;
13943;SDS011;7044;53.286;8.534;2023-07-29T09:33:29;5.60;;;3.38;;
13943;SDS011;7044;53.286;8.534;2023-07-29T09:36:00;5.95;;;3.33;;
13943;SDS011;7044;53.286;8.534;2023-07-29T09:38:27;4.72;;;3.70;;
13943;SDS011;7044;53.286;8.534;2023-07-29T09:40:56;4.95;;;3.58;;
13943;SDS011;7044;53.286;8.534;2023-07-29T09:43:25;6.95;;;3.35;;
13943;SDS011;7044;53.286;8.534;2023-07-29T09:45:55;4.90;;;3.95;;
13943;SDS011;7044;53.286;8.534;2023-07-29T09:48:22;6.75;;;4.30;;
13943;SDS011;7044;53.286;8.534;2023-07-29T09:50:49;6.68;;;3.90;;
13943;SDS011;7044;53.286;8.534;2023-07-29T09:53:16;6.75;;;3.40;;
13943;SDS011;7044;53.286;8.534;2023-07-29T09:55:45;3.97;;;3.45;;
13943;SDS011;7044;53.286;8.534;2023-07-29T09:58:14;4.47;;;3.38;;
13943;SDS011;7044;53.286;8.534;2023-07-29T10:00:44;5.28;;;3.08;;
13943;SDS011;7044;53.286;8.534;2023-07-29T10:03:11;5.55;;;3.22;;
13943;SDS011;7044;53.286;8.534;2023-07-29T10:05:40;5.38;;;3.05;;
13943;SDS011;7044;53.286;8.534;2023-07-29T10:08:07;5.00;;;3.30;;
13943;SDS011;7044;53.286;8.534;2023-07-29T10:10:35;3.47;;;3.17;;
13943;SDS011;7044;53.286;8.534;2023-07-29T10:13:02;2.40;;;2.20;;
13943;SDS011;7044;53.286;8.534;2023-07-29T10:15:32;2.58;;;2.38;;
13943;SDS011;7044;53.286;8.534;2023-07-29T10:17:59;3.30;;;2.30;;
13943;SDS011;7044;53.286;8.534;2023-07-29T10:20:29;7.45;;;2.50;;
13943;SDS011;7044;53.286;8.534;2023-07-29T10:22:58;3.00;;;2.38;;
13943;SDS011;7044;53.286;8.534;2023-07-29T10:25:28;5.38;;;2.30;;
13943;SDS011;7044;53.286;8.534;2023-07-29T10:28:04;2.00;;;1.80;;
13943;SDS011;7044;53.286;8.534;2023-07-29T10:30:33;3.22;;;1.80;;
13943;SDS011;7044;53.286;8.534;2023-07-29T10:33:02;1.85;;;1.75;;
13943;SDS011;7044;53.286;8.534;2023-07-29T10:35:30;2.75;;;1.70;;
13943;SDS011;7044;53.286;8.534;2023-07-29T10:37:58;3.85;;;1.95;;
13943;SDS011;7044;53.286;8.534;2023-07-29T10:40:26;6.03;;;1.90;;
13943;SDS011;7044;53.286;8.534;2023-07-29T10:43:09;1.75;;;1.63;;
13943;SDS011;7044;53.286;8.534;2023-07-29T10:45:39;1.98;;;1.75;;
13943;SDS011;7044;53.286;8.534;2023-07-29T10:48:08;2.13;;;1.80;;
13943;SDS011;7044;53.286;8.534;2023-07-29T10:50:37;2.20;;;1.60;;
13943;SDS011;7044;53.286;8.534;2023-07-29T10:53:04;4.57;;;1.90;;
13943;SDS011;7044;53.286;8.534;2023-07-29T10:55:32;2.40;;;1.63;;
13943;SDS011;7044;53.286;8.534;2023-07-29T10:58:06;6.10;;;1.70;;
13943;SDS011;7044;53.286;8.534;2023-07-29T11:00:45;2.30;;;2.10;;
13943;SDS011;7044;53.286;8.534;2023-07-29T11:03:12;1.77;;;1.67;;
13943;SDS011;7044;53.286;8.534;2023-07-29T11:05:50;3.47;;;2.10;;
13943;SDS011;7044;53.286;8.534;2023-07-29T11:08:18;3.20;;;1.90;;
13943;SDS011;7044;53.286;8.534;2023-07-29T11:10:59;4.05;;;1.80;;
13943;SDS011;7044;53.286;8.534;2023-07-29T11:13:28;2.83;;;2.08;;
13943;SDS011;7044;53.286;8.534;2023-07-29T11:15:59;1.85;;;1.65;;
13943;SDS011;7044;53.286;8.534;2023-07-29T11:18:26;2.75;;;1.92;;
13943;SDS011;7044;53.286;8.534;2023-07-29T11:20:56;2.47;;;1.92;;
13943;SDS011;7044;53.286;8.534;2023-07-29T11:23:27;2.88;;;1.75;;
13943;SDS011;7044;53.286;8.534;2023-07-29T11:25:56;3.70;;;2.22;;
13943;SDS011;7044;53.286;8.534;2023-07-29T11:28:23;3.08;;;2.08;;
13943;SDS011;7044;53.286;8.534;2023-07-29T11:30:50;2.40;;;1.90;;
13943;SDS011;7044;53.286;8.534;2023-07-29T11:33:19;1.65;;;1.55;;
13943;SDS011;7044;53.286;8.534;2023-07-29T11:35:46;3.45;;;2.15;;
13943;SDS011;7044;53.286;8.534;2023-07-29T11:38:14;2.38;;;1.92;;
13943;SDS011;7044;53.286;8.534;2023-07-29T11:40:41;2.67;;;1.90;;
13943;SDS011;7044;53.286;8.534;2023-07-29T11:43:08;6.40;;;2.22;;
13943;SDS011;7044;53.286;8.534;2023-07-29T11:45:35;2.30;;;2.10;;
13943;SDS011;7044;53.286;8.534;2023-07-29T11:48:02;2.78;;;1.67;;
13943;SDS011;7044;53.286;8.534;2023-07-29T11:50:30;3.35;;;1.95;;
13943;SDS011;7044;53.286;8.534;2023-07-29T11:52:57;2.20;;;1.52;;
13943;SDS011;7044;53.286;8.534;2023-07-29T11:55:24;2.13;;;1.92;;
13943;SDS011;7044;53.286;8.534;2023-07-29T11:57:52;2.35;;;1.70;;
13943;SDS011;7044;53.286;8.534;2023-07-29T12:00:18;3.63;;;2.15;;
13943;SDS011;7044;53.286;8.534;2023-07-29T12:02:47;2.80;;;2.10;;
13943;SDS011;7044;53.286;8.534;2023-07-29T12:05:15;2.80;;;1.90;;
13943;SDS011;7044;53.286;8.534;2023-07-29T12:07:45;2.25;;;2.05;;
13943;SDS011;7044;53.286;8.534;2023-07-29T12:10:13;4.47;;;1.90;;
13943;SDS011;7044;53.286;8.534;2023-07-29T12:12:44;4.72;;;2.08;;
13943;SDS011;7044;53.286;8.534;2023-07-29T12:15:12;5.38;;;2.45;;
13943;SDS011;7044;53.286;8.534;2023-07-29T12:17:40;6.18;;;2.00;;
13943;SDS011;7044;53.286;8.534;2023-07-29T12:20:08;3.70;;;1.80;;
13943;SDS011;7044;53.286;8.534;2023-07-29T12:22:36;3.95;;;2.05;;
13943;SDS011;7044;53.286;8.534;2023-07-29T12:25:05;6.15;;;2.15;;
13943;SDS011;7044;53.286;8.534;2023-07-29T12:27:32;3.42;;;1.77;;
13943;SDS011;7044;53.286;8.534;2023-07-29T12:30:00;3.22;;;2.03;;
13943;SDS011;7044;53.286;8.534;2023-07-29T12:32:29;4.70;;;2.00;;
13943;SDS011;7044;53.286;8.534;2023-07-29T12:34:56;2.47;;;1.90;;
13943;SDS011;7044;53.286;8.534;2023-07-29T12:37:30;3.38;;;1.98;;
13943;SDS011;7044;53.286;8.534;2023-07-29T12:39:59;2.15;;;1.92;;
13943;SDS011;7044;53.286;8.534;2023-07-29T12:42:27;3.42;;;1.92;;
13943;SDS011;7044;53.286;8.534;2023-07-29T12:44:54;2.95;;;1.95;;
13943;SDS011;7044;53.286;8.534;2023-07-29T12:47:21;5.45;;;1.95;;
13943;SDS011;7044;53.286;8.534;2023-07-29T12:49:48;4.32;;;2.08;;
13943;SDS011;7044;53.286;8.534;2023-07-29T12:52:16;3.05;;;1.80;;
13943;SDS011;7044;53.286;8.534;2023-07-29T12:54:42;6.90;;;1.90;;
13943;SDS011;7044;53.286;8.534;2023-07-29T12:57:09;3.53;;;2.00;;
13943;SDS011;7044;53.286;8.534;2023-07-29T12:59:37;2.17;;;1.98;;
13943;SDS011;7044;53.286;8.534;2023-07-29T13:02:04;1.92;;;1.63;;
13943;SDS011;7044;53.286;8.534;2023-07-29T13:04:31;2.80;;;1.70;;
13943;SDS011;7044;53.286;8.534;2023-07-29T13:06:58;2.95;;;1.65;;
13943;SDS011;7044;53.286;8.534;2023-07-29T13:09:25;1.77;;;1.67;;
13943;SDS011;7044;53.286;8.534;2023-07-29T13:11:52;5.55;;;1.77;;
13943;SDS011;7044;53.286;8.534;2023-07-29T13:14:19;5.10;;;1.80;;
13943;SDS011;7044;53.286;8.534;2023-07-29T13:16:47;2.53;;;1.65;;
13943;SDS011;7044;53.286;8.534;2023-07-29T13:19:14;8.25;;;1.80;;
13943;SDS011;7044;53.286;8.534;2023-07-29T13:21:41;4.38;;;1.80;;
13943;SDS011;7044;53.286;8.534;2023-07-29T13:24:08;2.83;;;1.90;;
13943;SDS011;7044;53.286;8.534;2023-07-29T13:26:35;4.20;;;1.90;;
13943;SDS011;7044;53.286;8.534;2023-07-29T13:29:01;2.10;;;1.90;;
13943;SDS011;7044;53.286;8.534;2023-07-29T13:31:29;2.60;;;1.67;;
13943;SDS011;7044;53.286;8.534;2023-07-29T13:33:57;2.20;;;1.88;;
13943;SDS011;7044;53.286;8.534;2023-07-29T13:36:24;2.97;;;2.10;;
13943;SDS011;7044;53.286;8.534;2023-07-29T13:38:51;2.25;;;1.95;;
13943;SDS011;7044;53.286;8.534;2023-07-29T13:41:17;3.53;;;1.80;;
13943;SDS011;7044;53.286;8.534;2023-07-29T13:43:44;3.47;;;1.85;;
13943;SDS011;7044;53.286;8.534;2023-07-29T13:46:11;1.60;;;1.50;;
13943;SDS011;7044;53.286;8.534;2023-07-29T13:48:38;2.03;;;1.60;;
13943;SDS011;7044;53.286;8.534;2023-07-29T13:51:06;2.83;;;1.50;;
13943;SDS011;7044;53.286;8.534;2023-07-29T13:53:33;3.97;;;1.77;;
13943;SDS011;7044;53.286;8.534;2023-07-29T13:56:00;2.63;;;1.73;;
13943;SDS011;7044;53.286;8.534;2023-07-29T13:58:27;3.35;;;1.65;;
13943;SDS011;7044;53.286;8.534;2023-07-29T14:00:54;2.53;;;1.50;;
13943;SDS011;7044;53.286;8.534;2023-07-29T14:03:20;7.32;;;1.73;;
13943;SDS011;7044;53.286;8.534;2023-07-29T14:05:47;3.42;;;1.33;;
13943;SDS011;7044;53.286;8.534;2023-07-29T14:08:15;3.95;;;1.35;;
13943;SDS011;7044;53.286;8.534;2023-07-29T14:10:42;8.02;;;1.50;;
13943;SDS011;7044;53.286;8.534;2023-07-29T14:13:09;4.30;;;1.85;;
13943;SDS011;7044;53.286;8.534;2023-07-29T14:15:36;5.10;;;1.70;;
13943;SDS011;7044;53.286;8.534;2023-07-29T14:18:03;1.98;;;1.42;;
13943;SDS011;7044;53.286;8.534;2023-07-29T14:20:31;6.07;;;1.50;;
13943;SDS011;7044;53.286;8.534;2023-07-29T14:22:58;2.10;;;1.50;;
13943;SDS011;7044;53.286;8.534;2023-07-29T14:25:26;2.25;;;1.40;;
13943;SDS011;7044;53.286;8.534;2023-07-29T14:27:53;5.43;;;1.80;;
13943;SDS011;7044;53.286;8.534;2023-07-29T14:30:20;2.70;;;1.60;;
13943;SDS011;7044;53.286;8.534;2023-07-29T14:32:47;1.83;;;1.73;;
13943;SDS011;7044;53.286;8.534;2023-07-29T14:35:14;3.38;;;1.90;;
13943;SDS011;7044;53.286;8.534;2023-07-29T14:37:41;2.50;;;1.75;;
13943;SDS011;7044;53.286;8.534;2023-07-29T14:40:08;4.00;;;2.15;;
13943;SDS011;7044;53.286;8.534;2023-07-29T14:42:36;2.63;;;1.85;;
13943;SDS011;7044;53.286;8.534;2023-07-29T14:45:03;2.65;;;1.98;;
13943;SDS011;7044;53.286;8.534;2023-07-29T14:47:31;2.50;;;2.00;;
13943;SDS011;7044;53.286;8.534;2023-07-29T14:49:59;3.47;;;2.30;;
13943;SDS011;7044;53.286;8.534;2023-07-29T14:52:26;4.55;;;2.42;;
13943;SDS011;7044;53.286;8.534;2023-07-29T14:54:53;3.25;;;2.30;;
13943;SDS011;7044;53.286;8.534;2023-07-29T14:57:20;4.47;;;2.83;;
13943;SDS011;7044;53.286;8.534;2023-07-29T14:59:48;3.72;;;2.78;;